Time;durP1;ratioP1;P1;durP2;ratioP2;P2;SDS_P1;SDS_P2;PMS_P1;PMS_P2;Temp;Humidity;BMP_temperature;BMP_pressure;BME280_temperature;BME280_humidity;BME280_pressure;Samples;Min_cycle;Max_cycle;Signal;HPM_P1;HPM_P2
2021/12/13 00:02:23;;;;;;;0.10;0.10;;;9.40;99.90;;;;;;5086775;28;20052;-81
2021/12/13 00:04:56;;;;;;;0.10;0.10;;;9.50;99.90;;;;;;5087393;28;20044;-81
2021/12/13 00:07:27;;;;;;;0.00;0.00;;;9.50;99.90;;;;;;5086559;28;20579;-79
2021/12/13 00:09:57;;;;;;;0.00;0.00;;;9.50;99.90;;;;;;5087345;28;20044;-79
2021/12/13 00:12:33;;;;;;;0.05;0.05;;;9.50;99.90;;;;;;5086906;28;20052;-81
2021/12/13 00:15:04;;;;;;;0.00;0.00;;;9.50;99.90;;;;;;5087011;28;20076;-79
2021/12/13 00:18:00;;;;;;;0.00;0.00;;;9.40;99.90;;;;;;5086389;28;20060;-80
2021/12/13 00:20:39;;;;;;;0.00;0.00;;;9.50;99.90;;;;;;5067055;28;20053;-80
2021/12/13 00:23:15;;;;;;;0.00;0.00;;;9.50;99.90;;;;;;5086534;28;20049;-80
2021/12/13 00:25:46;;;;;;;0.00;0.00;;;9.50;99.90;;;;;;5087030;28;20056;-81
2021/12/13 00:28:17;;;;;;;0.00;0.00;;;9.50;99.90;;;;;;5086482;28;20123;-79
2021/12/13 00:31:03;;;;;;;0.00;0.00;;;9.50;99.90;;;;;;5086214;28;20048;-81
2021/12/13 00:33:52;;;;;;;0.08;0.08;;;9.40;99.90;;;;;;5086048;28;20037;-80
2021/12/13 00:36:30;;;;;;;0.00;0.00;;;9.50;99.90;;;;;;5086257;28;20076;-79
2021/12/13 00:39:09;;;;;;;0.00;0.00;;;9.50;99.90;;;;;;5086434;28;20076;-81
2021/12/13 00:41:40;;;;;;;0.00;0.00;;;9.50;99.90;;;;;;5085965;28;20123;-80
2021/12/13 00:44:14;;;;;;;0.00;0.00;;;9.50;99.90;;;;;;5086157;28;20476;-79
2021/12/13 00:46:43;;;;;;;0.22;0.08;;;9.50;99.90;;;;;;5086114;28;20045;-79
2021/12/13 00:49:14;;;;;;;0.03;0.03;;;9.50;99.90;;;;;;5086460;28;20045;-81
2021/12/13 00:51:48;;;;;;;0.00;0.00;;;9.50;99.90;;;;;;5085940;28;20091;-81
2021/12/13 00:54:20;;;;;;;0.00;0.00;;;9.50;99.90;;;;;;5085821;28;20052;-81
2021/12/13 00:56:56;;;;;;;0.00;0.00;;;9.50;99.90;;;;;;5085974;28;20091;-79
2021/12/13 00:59:28;;;;;;;0.00;0.00;;;9.50;99.90;;;;;;5085518;28;20037;-79
2021/12/13 01:02:10;;;;;;;0.00;0.00;;;9.40;99.90;;;;;;5086188;28;20045;-79
2021/12/13 01:04:58;;;;;;;0.08;0.08;;;9.40;99.90;;;;;;5085486;28;20043;-79
2021/12/13 01:07:46;;;;;;;0.00;0.00;;;9.50;99.90;;;;;;5085731;28;20068;-80
2021/12/13 01:10:47;;;;;;;0.00;0.00;;;9.50;99.90;;;;;;5085744;28;20037;-81
2021/12/13 01:13:22;;;;;;;0.00;0.00;;;9.40;99.90;;;;;;5068982;28;20041;-79
2021/12/13 01:16:31;;;;;;;0.00;0.00;;;9.40;99.90;;;;;;5086034;28;20052;-79
2021/12/13 01:22:00;;;;;;;0.05;0.05;;;9.40;99.90;;;;;;5085574;28;20119;-79
2021/12/13 01:27:31;;;;;;;0.00;0.00;;;9.40;99.90;;;;;;5085386;28;20049;-79
2021/12/13 01:29:59;;;;;;;0.00;0.00;;;9.40;99.90;;;;;;5084706;28;20041;-79
2021/12/13 01:32:36;;;;;;;0.00;0.00;;;9.40;99.90;;;;;;5085169;28;20048;-81
2021/12/13 01:35:07;;;;;;;0.03;0.03;;;9.40;99.90;;;;;;5085520;28;20049;-81
2021/12/13 01:37:34;;;;;;;0.00;0.00;;;9.40;99.90;;;;;;5085076;28;20037;-79
2021/12/13 01:40:12;;;;;;;0.00;0.00;;;9.40;99.90;;;;;;5068670;28;20134;-79
2021/12/13 01:42:39;;;;;;;0.05;0.05;;;9.40;99.90;;;;;;5085213;28;20123;-79
2021/12/13 01:45:13;;;;;;;0.00;0.00;;;9.40;99.90;;;;;;5068997;28;20055;-80
2021/12/13 01:47:46;;;;;;;0.00;0.00;;;9.50;99.90;;;;;;5085269;28;20037;-80
2021/12/13 01:50:29;;;;;;;0.00;0.00;;;9.40;99.90;;;;;;5085125;28;20043;-80
2021/12/13 01:52:58;;;;;;;0.00;0.00;;;9.50;99.90;;;;;;5085030;28;20061;-81
2021/12/13 01:55:34;;;;;;;0.50;0.15;;;9.40;99.90;;;;;;5084776;28;20128;-79
2021/12/13 02:01:09;;;;;;;0.00;0.00;;;9.50;99.90;;;;;;5085285;28;20083;-79
2021/12/13 02:04:02;;;;;;;0.00;0.00;;;9.50;99.90;;;;;;5084993;28;20041;-81
2021/12/13 02:06:35;;;;;;;0.08;0.08;;;9.50;99.90;;;;;;5084875;28;20037;-81
2021/12/13 02:09:24;;;;;;;0.00;0.00;;;9.50;99.90;;;;;;5085055;28;20041;-79
2021/12/13 02:11:55;;;;;;;0.00;0.00;;;9.50;99.90;;;;;;5084942;28;20072;-80
2021/12/13 02:14:29;;;;;;;0.00;0.00;;;9.50;99.90;;;;;;5085328;28;20058;-81
2021/12/13 02:17:10;;;;;;;0.00;0.00;;;9.50;99.90;;;;;;5084995;28;20045;-80
2021/12/13 02:19:40;;;;;;;0.10;0.00;;;9.60;99.90;;;;;;5084806;28;20098;-80
2021/12/13 02:22:30;;;;;;;0.00;0.00;;;9.50;99.90;;;;;;5084907;28;20095;-79
2021/12/13 02:25:03;;;;;;;2.53;1.00;;;9.60;99.90;;;;;;5084768;28;20037;-79
2021/12/13 02:27:34;;;;;;;0.00;0.00;;;9.50;99.90;;;;;;5084641;28;20489;-79
2021/12/13 02:30:10;;;;;;;0.00;0.00;;;9.50;99.90;;;;;;5085149;28;20127;-81
2021/12/13 02:32:40;;;;;;;0.00;0.00;;;9.50;99.90;;;;;;5084683;28;20048;-79
2021/12/13 02:35:08;;;;;;;0.30;0.30;;;9.50;99.90;;;;;;5068147;28;20417;-80
2021/12/13 02:37:35;;;;;;;0.00;0.00;;;9.50;99.90;;;;;;5067618;28;20448;-79
2021/12/13 02:40:04;;;;;;;0.03;0.03;;;9.50;99.90;;;;;;5068057;28;20037;-80
2021/12/13 02:42:32;;;;;;;0.00;0.00;;;9.50;99.90;;;;;;5088071;28;20573;-80
2021/12/13 02:45:12;;;;;;;0.20;0.20;;;9.60;99.90;;;;;;5072192;28;20045;-81
2021/12/13 02:47:43;;;;;;;0.00;0.00;;;9.50;99.90;;;;;;5087972;28;20045;-81
2021/12/13 02:50:27;;;;;;;0.10;0.10;;;9.50;99.90;;;;;;5088231;28;20076;-80
2021/12/13 02:52:54;;;;;;;0.00;0.00;;;9.60;99.90;;;;;;5087844;28;20429;-80
2021/12/13 02:55:28;;;;;;;0.00;0.00;;;9.50;99.90;;;;;;5071487;28;20052;-79
2021/12/13 02:58:00;;;;;;;0.00;0.00;;;9.50;99.90;;;;;;5088086;28;20128;-79
2021/12/13 03:00:48;;;;;;;0.00;0.00;;;9.60;99.90;;;;;;5097980;28;20033;-79
2021/12/13 03:03:19;;;;;;;0.00;0.00;;;9.50;99.90;;;;;;5102145;28;20029;-81
2021/12/13 03:05:49;;;;;;;0.00;0.00;;;9.50;99.90;;;;;;5092997;28;20056;-81
2021/12/13 03:08:25;;;;;;;0.00;0.00;;;9.50;99.90;;;;;;5098760;28;20508;-79
2021/12/13 03:10:59;;;;;;;0.00;0.00;;;9.50;99.90;;;;;;5096098;28;20048;-81
2021/12/13 03:13:28;;;;;;;0.00;0.00;;;9.50;99.90;;;;;;5088049;28;20045;-81
2021/12/13 03:16:08;;;;;;;0.00;0.00;;;9.50;99.90;;;;;;5087598;28;20037;-79
2021/12/13 03:18:48;;;;;;;0.00;0.00;;;9.60;99.90;;;;;;5087629;28;20401;-79
2021/12/13 03:21:49;;;;;;;0.00;0.00;;;9.50;99.90;;;;;;5088157;28;20131;-79
2021/12/13 03:24:36;;;;;;;0.00;0.00;;;9.50;99.90;;;;;;5087770;28;20048;-79
2021/12/13 03:27:51;;;;;;;0.00;0.00;;;9.50;99.90;;;;;;5087838;28;20052;-80
2021/12/13 03:30:31;;;;;;;0.73;0.22;;;9.50;99.90;;;;;;4991143;28;20578;-81
2021/12/13 03:33:04;;;;;;;0.25;0.10;;;9.50;99.90;;;;;;5062057;28;20059;-79
2021/12/13 03:35:42;;;;;;;0.00;0.00;;;9.50;99.90;;;;;;5087482;28;20050;-80
2021/12/13 03:38:14;;;;;;;0.00;0.00;;;9.50;99.90;;;;;;5087470;28;20063;-80
2021/12/13 03:40:41;;;;;;;0.05;0.05;;;9.50;99.90;;;;;;5087143;28;20052;-79
2021/12/13 03:43:15;;;;;;;0.32;0.20;;;9.50;99.90;;;;;;5070701;28;20472;-81
2021/12/13 03:45:48;;;;;;;0.00;0.00;;;9.50;99.90;;;;;;5087174;28;20094;-80
2021/12/13 03:48:17;;;;;;;0.00;0.00;;;9.50;99.90;;;;;;5087326;28;20082;-79
2021/12/13 03:50:48;;;;;;;0.00;0.00;;;9.40;99.90;;;;;;5086914;28;20044;-79
2021/12/13 03:53:22;;;;;;;0.10;0.10;;;9.40;99.90;;;;;;5086268;28;20472;-80
2021/12/13 03:55:52;;;;;;;0.00;0.00;;;9.40;99.90;;;;;;5087172;28;20045;-80
2021/12/13 03:58:21;;;;;;;0.05;0.05;;;9.40;99.90;;;;;;5087200;28;20036;-81
2021/12/13 04:01:02;;;;;;;0.00;0.00;;;9.40;99.90;;;;;;5086766;28;20037;-80
2021/12/13 04:03:31;;;;;;;0.00;0.00;;;9.40;99.90;;;;;;5087168;28;20091;-81
2021/12/13 04:05:59;;;;;;;0.00;0.00;;;9.40;99.90;;;;;;5087007;28;20084;-81
2021/12/13 04:08:26;;;;;;;0.00;0.00;;;9.30;99.90;;;;;;5086714;28;20041;-81
2021/12/13 04:11:00;;;;;;;0.05;0.05;;;9.30;99.90;;;;;;5086450;28;20076;-79
2021/12/13 04:13:31;;;;;;;0.00;0.00;;;9.30;99.90;;;;;;5086769;28;20041;-80
2021/12/13 04:16:36;;;;;;;0.00;0.00;;;9.30;99.90;;;;;;5086448;28;20043;-80
2021/12/13 04:19:07;;;;;;;0.00;0.00;;;9.30;99.90;;;;;;5068748;28;20057;-79
2021/12/13 04:21:49;;;;;;;0.00;0.00;;;9.30;99.90;;;;;;5086487;28;20072;-79
2021/12/13 04:24:28;;;;;;;0.00;0.00;;;9.30;99.90;;;;;;5086983;28;20044;-81
2021/12/13 04:27:01;;;;;;;0.00;0.00;;;9.30;99.90;;;;;;5086124;28;20076;-81
2021/12/13 04:29:35;;;;;;;0.00;0.00;;;9.30;99.90;;;;;;5086712;28;20080;-79
2021/12/13 04:32:32;;;;;;;0.00;0.00;;;9.30;99.90;;;;;;5086202;28;20040;-81
2021/12/13 04:35:03;;;;;;;0.00;0.00;;;9.30;99.90;;;;;;5087374;28;20131;-79
2021/12/13 04:37:36;;;;;;;0.00;0.00;;;9.20;99.90;;;;;;5086427;28;20051;-79
2021/12/13 04:40:09;;;;;;;0.00;0.00;;;9.30;99.90;;;;;;5085780;28;20041;-80
2021/12/13 04:42:36;;;;;;;0.00;0.00;;;9.20;99.90;;;;;;5086318;28;20044;-79
2021/12/13 04:45:12;;;;;;;0.03;0.03;;;9.20;99.90;;;;;;5069188;28;20036;-80
2021/12/13 04:47:52;;;;;;;;;;;9.20;99.90;;;;;;5086828;28;20028;-81
2021/12/13 04:50:28;;;;;;;0.00;0.00;;;9.20;99.90;;;;;;5069819;28;19966;-81
2021/12/13 04:52:56;;;;;;;0.00;0.00;;;9.10;99.90;;;;;;5085486;28;20067;-80
2021/12/13 04:55:31;;;;;;;0.10;0.10;;;9.10;99.90;;;;;;5086164;28;20047;-78
2021/12/13 04:58:01;;;;;;;0.00;0.00;;;9.10;99.90;;;;;;5085597;28;20409;-78
2021/12/13 05:00:33;;;;;;;0.00;0.00;;;9.10;99.90;;;;;;5085739;28;20041;-80
2021/12/13 05:03:03;;;;;;;0.10;0.10;;;9.10;99.90;;;;;;5085688;28;20037;-79
2021/12/13 05:05:34;;;;;;;0.00;0.00;;;9.00;99.90;;;;;;5085744;28;20521;-79
2021/12/13 05:08:01;;;;;;;0.00;0.00;;;9.00;99.90;;;;;;5085470;28;20041;-79
2021/12/13 05:10:31;;;;;;;0.00;0.00;;;9.00;99.90;;;;;;5052707;28;20128;-80
2021/12/13 05:13:11;;;;;;;0.00;0.00;;;9.00;99.90;;;;;;5068779;28;20052;-78
2021/12/13 05:15:41;;;;;;;0.00;0.00;;;9.00;99.90;;;;;;5086002;28;20071;-80
2021/12/13 05:18:17;;;;;;;0.00;0.00;;;8.90;99.90;;;;;;5084985;28;20076;-80
2021/12/13 05:20:44;;;;;;;0.00;0.00;;;8.90;99.90;;;;;;5085532;28;20124;-79
2021/12/13 05:23:19;;;;;;;0.00;0.00;;;8.90;99.90;;;;;;5085148;28;20406;-78
2021/12/13 05:25:51;;;;;;;0.20;0.20;;;8.90;99.90;;;;;;5069029;28;20559;-80
2021/12/13 05:28:23;;;;;;;0.00;0.00;;;8.90;99.90;;;;;;5085599;28;20052;-79
2021/12/13 05:30:49;;;;;;;0.00;0.00;;;8.90;99.90;;;;;;5085426;28;20040;-80
2021/12/13 05:33:19;;;;;;;0.05;0.05;;;8.90;99.90;;;;;;5085350;28;20037;-79
2021/12/13 05:35:51;;;;;;;0.00;0.00;;;8.90;99.90;;;;;;5085433;28;20470;-78
2021/12/13 05:38:23;;;;;;;0.00;0.00;;;8.90;99.90;;;;;;5085527;28;20116;-80
2021/12/13 05:40:50;;;;;;;0.00;0.00;;;8.80;99.90;;;;;;5085614;28;20037;-79
2021/12/13 05:43:22;;;;;;;0.00;0.00;;;8.80;99.90;;;;;;5085291;28;20037;-79
2021/12/13 05:46:15;;;;;;;0.00;0.00;;;8.80;99.90;;;;;;5085570;28;20768;-78
2021/12/13 05:48:56;;;;;;;0.10;0.10;;;8.70;99.90;;;;;;5057933;28;20049;-80
2021/12/13 05:51:34;;;;;;;0.00;0.00;;;8.70;99.90;;;;;;5085621;28;20041;-79
2021/12/13 05:54:08;;;;;;;0.00;0.00;;;8.70;99.90;;;;;;5084563;28;20057;-80
2021/12/13 05:56:41;;;;;;;0.10;0.10;;;8.70;99.90;;;;;;5085119;28;20045;-80
2021/12/13 05:59:28;;;;;;;0.00;0.00;;;8.70;99.90;;;;;;5085139;28;20079;-78
2021/12/13 06:02:01;;;;;;;0.00;0.00;;;8.70;99.90;;;;;;5084789;28;20484;-79
2021/12/13 06:04:43;;;;;;;0.10;0.10;;;8.70;99.90;;;;;;5085508;28;20484;-79
2021/12/13 06:07:23;;;;;;;0.00;0.00;;;8.70;99.90;;;;;;5085006;28;20037;-79
2021/12/13 06:10:01;;;;;;;0.00;0.00;;;8.70;99.90;;;;;;5085138;28;20044;-80
2021/12/13 06:12:48;;;;;;;0.10;0.10;;;8.70;99.90;;;;;;5085065;28;20060;-79
2021/12/13 06:15:15;;;;;;;0.00;0.00;;;8.70;99.90;;;;;;5068588;28;20048;-79
2021/12/13 06:18:06;;;;;;;0.00;0.00;;;8.70;99.90;;;;;;5088988;28;20451;-78
2021/12/13 06:20:59;;;;;;;0.00;0.00;;;8.70;99.90;;;;;;5088767;28;20077;-80
2021/12/13 06:23:32;;;;;;;0.00;0.00;;;8.70;99.90;;;;;;5088940;28;20036;-81
2021/12/13 06:26:04;;;;;;;0.00;0.00;;;8.70;99.90;;;;;;5090908;28;20052;-80
2021/12/13 06:28:37;;;;;;;0.00;0.00;;;8.70;99.90;;;;;;5092805;28;20045;-78
2021/12/13 06:31:17;;;;;;;0.10;0.10;;;8.70;99.90;;;;;;5088329;28;20116;-79
2021/12/13 06:33:54;;;;;;;0.00;0.00;;;8.70;99.90;;;;;;5088616;28;20040;-80
2021/12/13 06:36:41;;;;;;;0.20;0.20;;;8.70;99.90;;;;;;5088300;28;20037;-79
2021/12/13 06:39:11;;;;;;;0.00;0.00;;;8.70;99.90;;;;;;5088267;28;20041;-80
2021/12/13 06:41:48;;;;;;;0.10;0.10;;;8.70;99.90;;;;;;5088820;28;20045;-79
2021/12/13 06:44:25;;;;;;;0.00;0.00;;;8.70;99.90;;;;;;5088346;28;20041;-78
2021/12/13 06:47:06;;;;;;;0.10;0.10;;;8.70;99.90;;;;;;5088528;28;20056;-79
2021/12/13 06:49:48;;;;;;;0.00;0.00;;;8.60;99.90;;;;;;5071517;28;20045;-78
2021/12/13 06:52:14;;;;;;;0.00;0.00;;;8.60;99.90;;;;;;5071444;28;20068;-78
2021/12/13 06:54:49;;;;;;;0.00;0.00;;;8.70;99.90;;;;;;5088210;28;20099;-78
2021/12/13 06:57:17;;;;;;;0.00;0.00;;;8.70;99.90;;;;;;5088146;28;20045;-78
2021/12/13 07:00:07;;;;;;;0.00;0.00;;;8.70;99.90;;;;;;5088164;28;20041;-78
2021/12/13 07:02:49;;;;;;;0.00;0.00;;;8.70;99.90;;;;;;5071667;28;20067;-79
2021/12/13 07:05:20;;;;;;;0.00;0.00;;;8.70;99.90;;;;;;5092539;28;20120;-79
2021/12/13 07:07:56;;;;;;;0.28;0.20;;;8.70;99.90;;;;;;5082359;28;20034;-80
2021/12/13 07:10:33;;;;;;;0.00;0.00;;;8.70;99.90;;;;;;5087962;28;20047;-78
2021/12/13 07:13:21;;;;;;;0.10;0.10;;;8.70;99.90;;;;;;5088224;28;20049;-78
2021/12/13 07:15:50;;;;;;;0.00;0.00;;;8.60;99.90;;;;;;5088184;28;20071;-81
2021/12/13 07:18:27;;;;;;;0.00;0.00;;;8.70;99.90;;;;;;5087274;28;20044;-79
2021/12/13 07:21:07;;;;;;;0.10;0.10;;;8.60;99.90;;;;;;5087669;28;20047;-79
2021/12/13 07:24:05;;;;;;;0.00;0.00;;;8.70;99.90;;;;;;5081896;28;20032;-79
2021/12/13 07:26:54;;;;;;;0.10;0.10;;;8.60;99.90;;;;;;5087297;28;20045;-78
2021/12/13 07:29:42;;;;;;;0.00;0.00;;;8.60;99.90;;;;;;5083776;28;20052;-79
2021/12/13 07:32:17;;;;;;;0.10;0.10;;;8.60;99.90;;;;;;5095395;28;20032;-80
2021/12/13 07:34:52;;;;;;;0.00;0.00;;;8.60;99.90;;;;;;5098220;28;20044;-80
2021/12/13 07:37:52;;;;;;;0.00;0.00;;;8.60;99.90;;;;;;5097569;28;20505;-80
2021/12/13 07:40:37;;;;;;;0.00;0.00;;;8.50;99.90;;;;;;5097795;28;20084;-80
2021/12/13 07:43:28;;;;;;;0.00;0.00;;;8.60;99.90;;;;;;5083159;28;20112;-79
2021/12/13 07:46:02;;;;;;;0.10;0.10;;;8.50;99.90;;;;;;5104406;28;20054;-79
2021/12/13 07:48:39;;;;;;;0.00;0.00;;;8.50;99.90;;;;;;5086821;28;20095;-80
2021/12/13 07:51:12;;;;;;;0.00;0.00;;;8.50;99.90;;;;;;5086994;28;20045;-79
2021/12/13 07:54:01;;;;;;;0.00;0.00;;;8.50;99.90;;;;;;5086227;28;20406;-81
2021/12/13 07:56:28;;;;;;;0.00;0.00;;;8.50;99.90;;;;;;5086208;28;20508;-79
2021/12/13 07:58:58;;;;;;;0.10;0.10;;;8.50;99.90;;;;;;5086565;28;20041;-81
2021/12/13 08:01:28;;;;;;;0.00;0.00;;;8.50;99.90;;;;;;5086801;28;20041;-80
2021/12/13 08:04:18;;;;;;;0.00;0.00;;;8.50;99.90;;;;;;5102190;28;20376;-80
2021/12/13 08:06:50;;;;;;;1.10;0.43;;;8.50;99.90;;;;;;5104614;28;20032;-82
2021/12/13 08:09:21;;;;;;;0.00;0.00;;;8.50;99.90;;;;;;5104062;28;20045;-81
2021/12/13 08:11:57;;;;;;;0.00;0.00;;;8.50;99.90;;;;;;5097794;28;20044;-82
2021/12/13 08:14:33;;;;;;;0.10;0.10;;;8.50;99.90;;;;;;5082154;28;20076;-80
2021/12/13 08:17:15;;;;;;;0.00;0.00;;;8.50;99.90;;;;;;5090721;28;20041;-81
2021/12/13 08:19:43;;;;;;;0.00;0.00;;;8.50;99.90;;;;;;5098656;28;20048;-82
2021/12/13 08:22:13;;;;;;;0.00;0.00;;;8.50;99.90;;;;;;5087574;28;20033;-82
2021/12/13 08:24:44;;;;;;;0.10;0.10;;;8.50;99.90;;;;;;5079058;28;20037;-80
2021/12/13 08:27:35;;;;;;;0.03;0.03;;;8.50;99.90;;;;;;5093232;28;20501;-82
2021/12/13 08:30:17;;;;;;;0.00;0.00;;;8.50;99.90;;;;;;5095570;28;20083;-81
2021/12/13 08:33:05;;;;;;;0.00;0.00;;;8.50;99.90;;;;;;5103555;28;20044;-82
2021/12/13 08:35:54;;;;;;;0.00;0.00;;;8.50;99.90;;;;;;5086265;28;20050;-79
2021/12/13 08:38:35;;;;;;;0.10;0.10;;;8.50;99.90;;;;;;5085889;28;20128;-81
2021/12/13 08:41:21;;;;;;;0.10;0.10;;;8.50;99.90;;;;;;5086484;28;20053;-81
2021/12/13 08:43:51;;;;;;;0.00;0.00;;;8.60;99.90;;;;;;5086366;28;20355;-81
2021/12/13 08:46:36;;;;;;;0.00;0.00;;;8.50;99.90;;;;;;5086136;28;20048;-80
2021/12/13 08:49:18;;;;;;;0.00;0.00;;;8.60;99.90;;;;;;5086293;28;20058;-82
2021/12/13 08:52:04;;;;;;;0.10;0.10;;;8.60;99.90;;;;;;5086231;28;20051;-82
2021/12/13 08:54:55;;;;;;;0.10;0.10;;;8.60;99.90;;;;;;5085744;28;20061;-80
2021/12/13 08:57:53;;;;;;;0.00;0.00;;;8.60;99.90;;;;;;5085826;28;20670;-81
2021/12/13 09:00:50;;;;;;;0.00;0.00;;;8.60;99.90;;;;;;5055989;28;20049;-81
2021/12/13 09:03:25;;;;;;;0.00;0.00;;;8.60;99.90;;;;;;5086194;28;20033;-80
2021/12/13 09:06:05;;;;;;;0.00;0.00;;;8.60;99.90;;;;;;5085978;28;20386;-80
2021/12/13 09:08:59;;;;;;;0.10;0.10;;;8.70;99.90;;;;;;5086404;28;20056;-81
2021/12/13 09:11:32;;;;;;;0.00;0.00;;;8.70;99.90;;;;;;5085504;28;20072;-79
2021/12/13 09:14:09;;;;;;;0.00;0.00;;;8.70;99.90;;;;;;5086153;28;20769;-81
2021/12/13 09:17:15;;;;;;;0.00;0.00;;;8.60;99.90;;;;;;5085630;28;20076;-80
2021/12/13 09:20:10;;;;;;;0.00;0.00;;;8.70;99.90;;;;;;5085774;28;20178;-80
2021/12/13 09:22:47;;;;;;;0.10;0.10;;;8.70;99.90;;;;;;5085894;28;20132;-80
2021/12/13 09:25:26;;;;;;;0.00;0.00;;;8.70;99.90;;;;;;5085852;28;20489;-80
2021/12/13 09:28:10;;;;;;;0.10;0.10;;;8.70;99.90;;;;;;5085855;28;20477;-80
2021/12/13 09:30:42;;;;;;;0.05;0.05;;;8.70;99.90;;;;;;5085257;28;20072;-80
2021/12/13 09:33:22;;;;;;;0.00;0.00;;;8.70;99.90;;;;;;5085620;28;20124;-81
2021/12/13 09:35:49;;;;;;;0.00;0.00;;;8.70;99.90;;;;;;5085956;28;20127;-80
2021/12/13 09:38:30;;;;;;;0.00;0.00;;;8.80;99.90;;;;;;5085439;28;20156;-82
2021/12/13 09:41:16;;;;;;;0.03;0.03;;;8.80;99.90;;;;;;5085833;28;20049;-81
2021/12/13 09:43:43;;;;;;;0.00;0.00;;;8.80;99.90;;;;;;5082010;28;20047;-80
2021/12/13 09:46:13;;;;;;;0.00;0.00;;;8.90;99.90;;;;;;5102497;28;20041;-79
2021/12/13 09:48:52;;;;;;;0.10;0.10;;;8.70;99.90;;;;;;5081606;28;20037;-82
2021/12/13 09:51:44;;;;;;;0.15;0.10;;;8.80;99.90;;;;;;5086122;28;20481;-81
2021/12/13 09:54:13;;;;;;;0.00;0.00;;;8.90;99.90;;;;;;5097854;28;20080;-80
2021/12/13 09:56:49;;;;;;;0.00;0.00;;;8.90;99.90;;;;;;5097369;28;20111;-81
2021/12/13 09:59:18;;;;;;;;;;;8.90;99.90;;;;;;5074303;28;20048;-80
2021/12/13 10:01:45;;;;;;;0.10;0.10;;;8.90;99.90;;;;;;5091272;28;19917;-80
2021/12/13 10:04:35;;;;;;;0.10;0.10;;;9.00;99.90;;;;;;5089974;28;20880;-81
2021/12/13 10:07:09;;;;;;;0.00;0.00;;;9.00;99.90;;;;;;5101954;28;20110;-82
2021/12/13 10:09:42;;;;;;;0.00;0.00;;;9.00;99.90;;;;;;5098712;28;20128;-81
2021/12/13 10:12:19;;;;;;;0.00;0.00;;;9.10;99.90;;;;;;5072457;28;20128;-82
2021/12/13 10:14:53;;;;;;;0.00;0.00;;;9.10;99.90;;;;;;5081063;28;20045;-80
2021/12/13 10:17:24;;;;;;;0.10;0.10;;;9.10;99.90;;;;;;5102990;28;20704;-80
2021/12/13 10:19:54;;;;;;;0.60;0.17;;;9.10;99.90;;;;;;5099067;28;20128;-80
2021/12/13 10:22:26;;;;;;;0.00;0.00;;;9.10;99.90;;;;;;5077684;28;20040;-80
2021/12/13 10:25:02;;;;;;;0.00;0.00;;;9.20;99.90;;;;;;5100051;28;20067;-82
2021/12/13 10:27:30;;;;;;;0.00;0.00;;;9.10;99.90;;;;;;5104405;28;20044;-82
2021/12/13 10:30:00;;;;;;;0.57;0.30;;;9.10;99.90;;;;;;5075680;28;20045;-80
2021/12/13 10:32:33;;;;;;;0.00;0.00;;;9.20;99.90;;;;;;5092012;28;20447;-81
2021/12/13 10:35:07;;;;;;;0.00;0.00;;;9.20;99.90;;;;;;5108490;28;20043;-80
2021/12/13 10:37:38;;;;;;;0.00;0.00;;;9.20;99.90;;;;;;5108482;28;20047;-80
2021/12/13 10:40:16;;;;;;;0.10;0.10;;;9.20;99.90;;;;;;5086461;28;20129;-80
2021/12/13 10:42:48;;;;;;;0.00;0.00;;;9.20;99.90;;;;;;5071645;28;20033;-80
2021/12/13 10:45:21;;;;;;;0.00;0.00;;;9.20;99.90;;;;;;5071653;28;20049;-82
2021/12/13 10:47:51;;;;;;;0.00;0.00;;;9.20;99.90;;;;;;5088371;28;20684;-82
2021/12/13 10:50:41;;;;;;;0.00;0.00;;;9.50;99.90;;;;;;5093548;28;20039;-80
2021/12/13 10:53:10;;;;;;;0.10;0.10;;;9.20;99.90;;;;;;5085772;28;20489;-81
2021/12/13 10:55:51;;;;;;;0.00;0.00;;;9.30;99.90;;;;;;5088058;28;20123;-81
2021/12/13 10:58:23;;;;;;;0.00;0.00;;;9.20;99.90;;;;;;5088002;28;20068;-80
2021/12/13 11:00:55;;;;;;;0.00;0.00;;;9.30;99.90;;;;;;5104313;28;20059;-81
2021/12/13 11:03:24;;;;;;;0.05;0.05;;;9.30;99.90;;;;;;5107997;28;20098;-80
2021/12/13 11:05:52;;;;;;;0.10;0.10;;;9.30;99.90;;;;;;5087645;28;20044;-80
2021/12/13 11:08:21;;;;;;;0.05;0.05;;;9.30;99.90;;;;;;5073170;28;20033;-80
2021/12/13 11:10:56;;;;;;;0.00;0.00;;;9.30;99.90;;;;;;5074013;28;20045;-80
2021/12/13 11:13:26;;;;;;;0.00;0.00;;;9.40;99.90;;;;;;5091215;28;20037;-80
2021/12/13 11:15:59;;;;;;;0.00;0.00;;;9.30;99.90;;;;;;5106865;28;20074;-80
2021/12/13 11:18:30;;;;;;;0.00;0.00;;;9.40;99.90;;;;;;5091303;28;20063;-80
2021/12/13 11:21:07;;;;;;;0.10;0.10;;;9.30;99.90;;;;;;5090645;28;20531;-80
2021/12/13 11:23:34;;;;;;;0.00;0.00;;;9.40;99.90;;;;;;5071005;28;20071;-80
2021/12/13 11:26:06;;;;;;;0.00;0.00;;;9.30;99.90;;;;;;5041061;28;20028;-80
2021/12/13 11:28:33;;;;;;;0.00;0.00;;;9.30;99.90;;;;;;5070536;28;20036;-80
2021/12/13 11:31:10;;;;;;;0.00;0.00;;;9.40;99.90;;;;;;5059572;28;20043;-81
2021/12/13 11:33:59;;;;;;;0.00;0.00;;;9.40;99.90;;;;;;5090055;28;20789;-81
2021/12/13 11:36:48;;;;;;;0.00;0.00;;;9.30;99.90;;;;;;5076633;28;20048;-81
2021/12/13 11:39:44;;;;;;;0.00;0.00;;;9.40;99.90;;;;;;5076121;28;20041;-80
2021/12/13 11:42:23;;;;;;;0.00;0.00;;;9.40;99.90;;;;;;5084483;28;20385;-80
2021/12/13 11:44:58;;;;;;;0.00;0.00;;;9.40;99.90;;;;;;5095380;28;20124;-80
2021/12/13 11:47:43;;;;;;;0.00;0.00;;;9.40;99.90;;;;;;5100643;28;20403;-80
2021/12/13 11:50:36;;;;;;;0.52;0.52;;;9.40;99.90;;;;;;5090801;28;20054;-80
2021/12/13 11:53:34;;;;;;;0.00;0.00;;;9.50;99.90;;;;;;5090292;28;20053;-80
2021/12/13 11:56:10;;;;;;;0.00;0.00;;;9.50;99.90;;;;;;5089247;28;20044;-80
2021/12/13 11:59:07;;;;;;;0.00;0.00;;;9.50;99.90;;;;;;5106682;28;20090;-81
2021/12/13 12:02:03;;;;;;;0.03;0.03;;;9.50;99.90;;;;;;5103811;28;20497;-79
2021/12/13 12:04:51;;;;;;;0.00;0.00;;;9.50;99.90;;;;;;5088919;28;20044;-80
2021/12/13 12:07:24;;;;;;;0.00;0.00;;;9.60;99.90;;;;;;5091806;28;20053;-79
2021/12/13 12:10:24;;;;;;;0.05;0.05;;;9.60;99.90;;;;;;5102255;28;20408;-80
2021/12/13 12:13:09;;;;;;;0.00;0.00;;;9.50;99.90;;;;;;5097105;28;20127;-80
2021/12/13 12:15:39;;;;;;;0.00;0.00;;;9.60;99.90;;;;;;5089969;28;20534;-79
2021/12/13 12:18:10;;;;;;;0.00;0.00;;;9.60;99.90;;;;;;5089647;28;20662;-81
2021/12/13 12:20:42;;;;;;;0.00;0.00;;;9.60;99.90;;;;;;5089416;28;20094;-81
2021/12/13 12:23:22;;;;;;;0.00;0.00;;;9.50;99.90;;;;;;5094679;28;20033;-81
2021/12/13 12:25:50;;;;;;;0.13;0.10;;;9.50;99.90;;;;;;5098474;28;20119;-80
2021/12/13 12:28:18;;;;;;;0.00;0.00;;;9.60;99.90;;;;;;5086253;28;20040;-80
2021/12/13 12:30:49;;;;;;;0.10;0.10;;;9.60;99.90;;;;;;5062182;28;20098;-80
2021/12/13 12:33:38;;;;;;;0.00;0.00;;;9.50;99.90;;;;;;5070256;28;20055;-80
2021/12/13 12:36:22;;;;;;;0.00;0.00;;;9.60;99.90;;;;;;5080128;28;20045;-80
2021/12/13 12:39:04;;;;;;;0.00;0.00;;;9.60;99.90;;;;;;5100213;28;20055;-80
2021/12/13 12:42:02;;;;;;;0.00;0.00;;;9.60;99.90;;;;;;5098239;28;20120;-80
2021/12/13 12:44:59;;;;;;;0.05;0.05;;;9.60;99.90;;;;;;5085367;28;20454;-80
2021/12/13 12:47:35;;;;;;;0.00;0.00;;;9.60;99.90;;;;;;5089627;28;20137;-80
2021/12/13 12:50:17;;;;;;;0.00;0.00;;;9.60;99.90;;;;;;5089199;28;20139;-80
2021/12/13 12:52:50;;;;;;;0.00;0.00;;;9.60;99.90;;;;;;5079132;28;20045;-80
2021/12/13 12:55:20;;;;;;;0.00;0.00;;;9.60;99.90;;;;;;5085608;28;20451;-80
2021/12/13 12:57:48;;;;;;;0.00;0.00;;;9.60;99.90;;;;;;5085488;28;20428;-81
2021/12/13 13:00:20;;;;;;;0.00;0.00;;;9.60;99.90;;;;;;5075757;28;20060;-80
2021/12/13 13:02:48;;;;;;;0.03;0.03;;;9.70;99.90;;;;;;5065243;28;20099;-80
2021/12/13 13:05:15;;;;;;;0.00;0.00;;;9.70;99.90;;;;;;5072513;28;20170;-81
2021/12/13 13:07:42;;;;;;;0.00;0.00;;;9.70;99.90;;;;;;5097226;28;20072;-80
2021/12/13 13:12:58;;;;;;;0.35;0.20;;;9.70;99.90;;;;;;5105614;28;20142;-81
2021/12/13 13:15:29;;;;;;;0.00;0.00;;;9.70;99.90;;;;;;5075128;28;20036;-81
2021/12/13 13:18:04;;;;;;;0.00;0.00;;;9.70;99.90;;;;;;5085085;28;20459;-80
2021/12/13 13:20:47;;;;;;;0.00;0.00;;;9.70;99.90;;;;;;5091376;28;20101;-79
2021/12/13 13:23:14;;;;;;;0.00;0.00;;;9.70;99.90;;;;;;5088752;28;20311;-80
2021/12/13 13:25:53;;;;;;;0.35;0.35;;;9.70;99.90;;;;;;5068731;28;20563;-79
2021/12/13 13:28:25;;;;;;;0.10;0.10;;;9.60;99.90;;;;;;5068851;28;20063;-78
2021/12/13 13:31:04;;;;;;;0.05;0.05;;;9.60;99.90;;;;;;5085076;28;20124;-80
2021/12/13 13:33:35;;;;;;;0.00;0.00;;;9.70;99.90;;;;;;5085274;28;20041;-79
2021/12/13 13:36:04;;;;;;;0.00;0.00;;;9.70;99.90;;;;;;5084805;28;20056;-79
2021/12/13 13:38:31;;;;;;;0.00;0.00;;;9.60;99.90;;;;;;5068722;28;20095;-80
2021/12/13 13:40:59;;;;;;;0.00;0.00;;;9.60;99.90;;;;;;5084653;28;20056;-80
2021/12/13 13:43:31;;;;;;;0.20;0.20;;;9.60;99.90;;;;;;5084843;28;20037;-80
2021/12/13 13:45:58;;;;;;;0.00;0.00;;;9.60;99.90;;;;;;5069057;28;20068;-79
2021/12/13 13:48:33;;;;;;;0.00;0.00;;;9.50;99.90;;;;;;5084820;28;20044;-80
2021/12/13 13:51:20;;;;;;;0.00;0.00;;;9.50;99.90;;;;;;5105019;28;20406;-80
2021/12/13 13:53:53;;;;;;;0.00;0.00;;;9.50;99.90;;;;;;5087794;28;20096;-81
2021/12/13 13:56:21;;;;;;;0.10;0.10;;;9.40;99.90;;;;;;5101963;28;20049;-80
2021/12/13 13:58:55;;;;;;;0.00;0.00;;;9.40;99.90;;;;;;5087468;28;20075;-80
2021/12/13 14:01:37;;;;;;;0.10;0.10;;;9.30;99.90;;;;;;5105524;28;20123;-80